createdAt,value
2017-09-29T00:01:58.647Z,91.70
2017-09-29T00:04:26.167Z,91.70
2017-09-29T00:06:53.668Z,91.80
2017-09-29T00:09:21.961Z,92.00
2017-09-29T00:11:49.477Z,92.00
2017-09-29T00:14:17.187Z,91.90
2017-09-29T00:16:44.696Z,92.00
2017-09-29T00:19:12.233Z,91.90
2017-09-29T00:21:39.766Z,92.00
2017-09-29T00:24:07.297Z,92.00
2017-09-29T00:26:35.568Z,92.10
2017-09-29T00:29:03.855Z,91.90
2017-09-29T00:31:32.138Z,92.10
2017-09-29T00:34:00.429Z,92.10
2017-09-29T00:36:27.944Z,92.00
2017-09-29T00:38:56.255Z,92.10
2017-09-29T00:41:23.765Z,92.10
2017-09-29T00:43:51.287Z,92.10
2017-09-29T00:46:18.792Z,92.10
2017-09-29T00:48:46.319Z,92.20
2017-09-29T00:51:13.830Z,92.10
2017-09-29T00:53:42.129Z,92.20
2017-09-29T00:56:09.646Z,92.20
2017-09-29T00:58:37.178Z,92.30
2017-09-29T01:01:04.692Z,92.30
2017-09-29T01:03:32.962Z,92.30
2017-09-29T01:06:01.240Z,92.30
2017-09-29T01:08:29.561Z,92.30
2017-09-29T01:10:57.087Z,92.40
2017-09-29T01:13:24.604Z,92.40
2017-09-29T01:15:52.119Z,92.40
2017-09-29T01:18:19.632Z,92.50
2017-09-29T01:20:47.154Z,92.50
2017-09-29T01:23:14.686Z,92.60
2017-09-29T01:25:42.961Z,92.60
2017-09-29T01:28:11.237Z,92.60
2017-09-29T01:30:39.519Z,92.50
2017-09-29T01:33:07.788Z,92.40
2017-09-29T01:35:36.077Z,92.30
2017-09-29T01:38:03.671Z,92.30
2017-09-29T01:40:31.201Z,92.30
2017-09-29T01:42:58.709Z,92.50
2017-09-29T01:45:26.247Z,92.40
2017-09-29T01:47:53.750Z,92.30
2017-09-29T01:50:21.254Z,92.40
2017-09-29T01:52:48.783Z,92.50
2017-09-29T01:55:16.296Z,92.50
2017-09-29T01:57:43.844Z,92.50
2017-09-29T02:00:11.351Z,92.40
2017-09-29T02:02:38.866Z,92.30
2017-09-29T02:05:06.391Z,92.40
2017-09-29T02:07:33.903Z,92.30
2017-09-29T02:16:45.777Z,92.30
2017-09-29T02:19:14.124Z,92.50
2017-09-29T02:21:41.669Z,92.50
2017-09-29T02:24:09.225Z,92.70
2017-09-29T02:26:36.724Z,92.70
2017-09-29T02:29:05.003Z,92.60
2017-09-29T02:31:32.548Z,92.60
2017-09-29T02:34:00.087Z,92.50
2017-09-29T02:36:27.602Z,92.40
2017-09-29T02:38:55.113Z,92.40
2017-09-29T02:41:22.619Z,92.40
2017-09-29T02:43:50.222Z,92.50
2017-09-29T02:46:17.753Z,92.40
2017-09-29T02:48:45.270Z,92.40
2017-09-29T02:51:12.796Z,92.40
2017-09-29T02:53:40.324Z,92.50
2017-09-29T02:56:07.873Z,92.50
2017-09-29T02:58:41.747Z,92.50
2017-09-29T03:01:15.528Z,92.50
2017-09-29T03:03:47.621Z,92.40
2017-09-29T03:06:15.169Z,92.40
2017-09-29T03:08:42.689Z,92.30
2017-09-29T03:11:10.196Z,92.20
2017-09-29T03:13:37.705Z,92.20
2017-09-29T03:16:05.215Z,92.30
2017-09-29T03:18:32.752Z,92.30
2017-09-29T03:21:00.269Z,92.10
2017-09-29T03:23:28.544Z,92.70
2017-09-29T03:25:56.089Z,92.30
2017-09-29T03:28:24.375Z,92.30
2017-09-29T03:30:52.657Z,92.30
2017-09-29T03:33:20.931Z,92.40
2017-09-29T03:35:49.207Z,92.50
2017-09-29T03:38:17.485Z,92.50
2017-09-29T03:40:45.764Z,92.60
2017-09-29T03:43:14.062Z,92.60
2017-09-29T03:45:41.576Z,92.60
2017-09-29T03:48:09.083Z,92.40
2017-09-29T03:50:39.850Z,92.60
2017-09-29T03:53:14.179Z,92.70
2017-09-29T03:55:44.123Z,92.70
2017-09-29T03:58:14.911Z,92.90
2017-09-29T04:00:42.438Z,93.00
2017-09-29T04:03:09.979Z,92.70
2017-09-29T04:05:38.293Z,93.10
2017-09-29T04:08:05.864Z,92.70
2017-09-29T04:10:33.385Z,92.70
2017-09-29T04:13:00.900Z,92.70
2017-09-29T04:15:28.426Z,92.70
2017-09-29T04:17:55.996Z,92.70
2017-09-29T04:20:23.509Z,92.50
2017-09-29T04:22:51.792Z,92.50
2017-09-29T04:25:20.069Z,92.70
2017-09-29T04:27:48.769Z,92.70
2017-09-29T04:30:17.707Z,92.70
2017-09-29T04:32:45.329Z,92.90
2017-09-29T04:35:12.873Z,92.80
2017-09-29T04:37:40.393Z,92.90
2017-09-29T04:40:07.925Z,92.80
2017-09-29T04:42:35.441Z,92.90
2017-09-29T04:45:02.972Z,93.00
2017-09-29T04:47:30.477Z,93.10
2017-09-29T04:49:58.751Z,93.30
2017-09-29T04:52:27.054Z,93.30
2017-09-29T04:54:54.573Z,93.20
2017-09-29T04:57:22.114Z,93.20
2017-09-29T04:59:49.636Z,93.30
2017-09-29T05:02:17.185Z,93.40
2017-09-29T05:04:44.708Z,93.40
2017-09-29T05:07:12.257Z,93.50
2017-09-29T05:09:39.815Z,93.80
2017-09-29T05:12:07.347Z,93.30
2017-09-29T05:14:34.854Z,93.20
2017-09-29T05:17:02.563Z,93.20
2017-09-29T05:19:30.148Z,93.20
2017-09-29T05:21:57.686Z,93.40
2017-09-29T05:24:25.198Z,93.40
2017-09-29T05:26:53.486Z,93.30
2017-09-29T05:29:21.845Z,93.30
2017-09-29T05:31:49.396Z,93.30
2017-09-29T05:34:16.905Z,93.30
2017-09-29T05:36:44.442Z,93.20
2017-09-29T05:39:11.977Z,93.30
2017-09-29T05:41:39.509Z,93.20
2017-09-29T05:44:07.153Z,93.20
2017-09-29T05:46:34.761Z,93.20
2017-09-29T05:49:02.269Z,93.20
2017-09-29T05:51:29.782Z,93.20
2017-09-29T05:53:57.472Z,93.30
2017-09-29T05:56:25.023Z,93.10
2017-09-29T05:58:53.312Z,93.20
2017-09-29T06:01:20.855Z,93.20
2017-09-29T06:03:48.385Z,93.30
2017-09-29T06:06:15.896Z,93.20
2017-09-29T06:08:43.452Z,93.10
2017-09-29T06:11:10.971Z,93.10
2017-09-29T06:13:38.591Z,93.00
2017-09-29T06:16:06.104Z,93.00
2017-09-29T06:18:33.611Z,93.10
2017-09-29T06:21:01.132Z,93.50
2017-09-29T06:23:28.657Z,93.00
2017-09-29T06:25:56.194Z,93.00
2017-09-29T06:28:23.712Z,92.90
2017-09-29T06:30:51.229Z,92.90
2017-09-29T06:33:18.758Z,92.80
2017-09-29T06:35:46.281Z,92.60
2017-09-29T06:38:13.795Z,92.40
2017-09-29T06:40:41.442Z,92.40
2017-09-29T06:43:08.952Z,92.20
2017-09-29T06:45:36.627Z,92.20
2017-09-29T06:48:04.902Z,92.20
2017-09-29T06:50:33.174Z,92.40
2017-09-29T06:53:00.703Z,92.40
2017-09-29T06:55:28.214Z,92.80
2017-09-29T06:57:55.735Z,92.40
2017-09-29T07:00:23.281Z,92.20
2017-09-29T07:02:50.794Z,91.50
2017-09-29T07:05:18.315Z,90.90
2017-09-29T07:07:45.824Z,91.10
2017-09-29T07:10:13.381Z,91.20
2017-09-29T07:12:41.010Z,91.20
2017-09-29T07:15:08.540Z,91.10
2017-09-29T07:17:36.049Z,91.10
2017-09-29T07:20:04.352Z,90.80
2017-09-29T07:22:31.852Z,90.80
2017-09-29T07:25:04.640Z,90.60
2017-09-29T07:27:34.847Z,90.90
2017-09-29T07:30:06.140Z,90.80
2017-09-29T07:32:33.722Z,90.80
2017-09-29T07:35:01.253Z,90.40
2017-09-29T07:37:28.769Z,90.50
2017-09-29T07:39:56.281Z,90.40
2017-09-29T07:42:24.764Z,90.20
2017-09-29T07:44:55.957Z,90.30
2017-09-29T07:47:23.568Z,90.30
2017-09-29T07:49:51.848Z,90.00
2017-09-29T07:52:20.137Z,89.90
2017-09-29T07:54:47.683Z,89.90
2017-09-29T07:57:15.190Z,89.40
2017-09-29T07:59:42.689Z,88.60
2017-09-29T08:02:10.985Z,89.30
2017-09-29T08:04:38.519Z,89.30
2017-09-29T08:07:06.815Z,88.60
2017-09-29T08:09:34.328Z,88.50
2017-09-29T08:12:01.846Z,88.20
2017-09-29T08:14:29.403Z,88.00
2017-09-29T08:16:56.903Z,88.10
2017-09-29T08:19:24.418Z,87.60
2017-09-29T08:21:51.994Z,87.70
2017-09-29T08:24:19.528Z,87.90
2017-09-29T08:26:47.812Z,87.10
2017-09-29T08:29:15.346Z,87.10
2017-09-29T08:31:42.858Z,86.70
2017-09-29T08:34:10.365Z,86.40
2017-09-29T08:36:38.659Z,86.30
2017-09-29T08:39:06.918Z,85.60
2017-09-29T08:41:35.200Z,85.50
2017-09-29T08:44:03.480Z,85.80
2017-09-29T08:46:31.756Z,85.90
2017-09-29T08:49:00.058Z,85.30
2017-09-29T08:51:27.579Z,85.30
2017-09-29T08:53:55.081Z,85.00
2017-09-29T08:56:22.603Z,84.80
2017-09-29T08:58:50.181Z,84.20
2017-09-29T09:01:17.694Z,84.60
2017-09-29T09:03:45.232Z,83.90
2017-09-29T09:06:12.742Z,83.40
2017-09-29T09:08:40.396Z,82.80
2017-09-29T09:11:07.908Z,82.10
2017-09-29T09:13:35.445Z,81.10
2017-09-29T09:16:03.015Z,81.70
2017-09-29T09:18:30.531Z,80.00
2017-09-29T09:20:58.146Z,80.80
2017-09-29T09:23:25.658Z,80.30
2017-09-29T09:25:53.189Z,80.10
2017-09-29T09:28:20.705Z,80.20
2017-09-29T09:30:48.223Z,79.70
2017-09-29T09:33:15.735Z,78.30
2017-09-29T09:35:43.286Z,77.70
2017-09-29T09:38:10.816Z,77.20
2017-09-29T09:40:38.333Z,76.80
2017-09-29T09:43:05.870Z,76.60
2017-09-29T09:45:33.392Z,76.90
2017-09-29T09:48:00.896Z,75.20
2017-09-29T09:50:28.436Z,75.10
2017-09-29T09:52:56.028Z,74.60
2017-09-29T09:55:23.532Z,74.50
2017-09-29T09:57:51.064Z,74.50
2017-09-29T10:00:18.577Z,73.80
2017-09-29T10:02:46.109Z,73.20
2017-09-29T10:05:13.627Z,72.20
2017-09-29T10:07:41.142Z,73.10
2017-09-29T10:10:09.457Z,72.30
2017-09-29T10:12:38.681Z,86.50
2017-09-29T10:15:06.190Z,77.20
2017-09-29T10:17:33.715Z,99.90
2017-09-29T10:20:01.237Z,63.90
2017-09-29T10:22:28.753Z,58.00
2017-09-29T10:24:57.053Z,50.40
2017-09-29T10:27:24.576Z,50.40
2017-09-29T10:29:52.088Z,45.80
2017-09-29T10:32:19.596Z,43.50
2017-09-29T10:34:47.128Z,41.20
2017-09-29T10:37:14.649Z,39.00
2017-09-29T10:39:42.172Z,37.80
2017-09-29T10:42:09.994Z,35.30
2017-09-29T10:44:37.518Z,34.50
2017-09-29T10:47:05.778Z,31.70
2017-09-29T10:49:34.076Z,31.00
2017-09-29T10:52:01.592Z,30.90
2017-09-29T10:54:29.090Z,29.90
2017-09-29T10:56:56.606Z,29.10
2017-09-29T10:59:24.135Z,28.80
2017-09-29T11:01:51.717Z,28.40
2017-09-29T11:04:19.223Z,27.50
2017-09-29T11:06:47.520Z,27.80
2017-09-29T11:09:15.055Z,27.70
2017-09-29T11:11:43.332Z,28.00
2017-09-29T11:14:10.854Z,28.00
2017-09-29T11:16:38.389Z,27.40
2017-09-29T11:19:05.916Z,27.30
2017-09-29T11:21:34.194Z,26.70
2017-09-29T11:24:01.717Z,26.70
2017-09-29T11:26:29.226Z,26.20
2017-09-29T11:28:56.761Z,25.80
2017-09-29T11:31:24.271Z,26.10
2017-09-29T11:33:51.785Z,25.90
2017-09-29T11:36:20.068Z,24.70
2017-09-29T11:38:48.342Z,24.70
2017-09-29T11:41:16.625Z,24.70
2017-09-29T11:43:44.898Z,24.60
2017-09-29T11:46:13.174Z,24.00
2017-09-29T11:48:41.548Z,24.20
2017-09-29T11:51:09.097Z,24.10
2017-09-29T11:53:36.614Z,24.20
2017-09-29T11:56:04.120Z,23.50
2017-09-29T11:58:31.696Z,23.30
2017-09-29T12:01:00.052Z,22.90
2017-09-29T12:03:27.588Z,22.90
2017-09-29T12:05:55.112Z,22.80
2017-09-29T12:08:22.624Z,22.40
2017-09-29T12:10:50.138Z,22.80
2017-09-29T12:13:17.654Z,23.40
2017-09-29T12:15:45.165Z,24.00
2017-09-29T12:18:12.683Z,24.30
2017-09-29T12:20:40.202Z,25.30
2017-09-29T12:23:07.725Z,26.40
2017-09-29T12:25:35.237Z,27.10
2017-09-29T12:28:02.739Z,27.70
2017-09-29T12:30:30.262Z,28.20
2017-09-29T12:32:57.776Z,29.20
2017-09-29T12:35:25.294Z,29.80
2017-09-29T12:37:52.808Z,30.40
2017-09-29T12:40:20.321Z,31.40
2017-09-29T12:42:48.693Z,33.20
2017-09-29T12:45:17.086Z,33.20
2017-09-29T12:47:44.630Z,33.80
2017-09-29T12:50:12.151Z,34.60
2017-09-29T12:52:39.646Z,35.40
2017-09-29T12:55:07.249Z,35.90
2017-09-29T12:57:34.787Z,36.60
2017-09-29T13:00:03.071Z,37.20
2017-09-29T13:02:30.618Z,37.20
2017-09-29T13:04:58.483Z,37.30
2017-09-29T13:07:26.001Z,37.40
2017-09-29T13:09:53.512Z,38.00
2017-09-29T13:12:21.058Z,37.90
2017-09-29T13:14:48.578Z,38.20
2017-09-29T13:17:16.224Z,37.80
2017-09-29T13:19:44.051Z,38.30
2017-09-29T13:22:11.548Z,38.80
2017-09-29T13:24:39.071Z,40.00
2017-09-29T13:27:07.397Z,41.10
2017-09-29T13:29:34.904Z,41.10
2017-09-29T13:32:03.217Z,43.00
2017-09-29T13:34:30.751Z,42.90
2017-09-29T13:36:59.016Z,43.40
2017-09-29T13:39:27.286Z,43.60
2017-09-29T13:41:55.590Z,44.20
2017-09-29T13:44:23.095Z,43.60
2017-09-29T13:46:50.751Z,43.50
2017-09-29T13:49:18.279Z,43.00
2017-09-29T13:51:45.770Z,43.90
2017-09-29T13:54:13.304Z,44.00
2017-09-29T13:56:40.826Z,44.80
2017-09-29T13:59:08.364Z,45.10
2017-09-29T14:01:35.943Z,44.80
2017-09-29T14:04:04.262Z,45.10
2017-09-29T14:06:31.794Z,44.40
2017-09-29T14:09:00.071Z,43.80
2017-09-29T14:11:28.348Z,41.90
2017-09-29T14:13:56.631Z,38.50
2017-09-29T14:16:24.148Z,38.50
2017-09-29T14:18:51.678Z,36.20
2017-09-29T14:21:19.184Z,34.60
2017-09-29T14:23:46.706Z,34.90
2017-09-29T14:26:14.212Z,35.80
2017-09-29T14:28:41.715Z,37.10
2017-09-29T14:31:09.219Z,37.80
2017-09-29T14:33:36.728Z,38.70
2017-09-29T14:36:04.265Z,38.30
2017-09-29T14:38:31.802Z,39.00
2017-09-29T14:41:00.084Z,37.10
2017-09-29T14:43:28.370Z,36.80
2017-09-29T14:45:56.647Z,37.30
2017-09-29T14:48:24.944Z,37.90
2017-09-29T14:50:52.470Z,37.90
2017-09-29T14:53:19.983Z,39.20
2017-09-29T14:55:47.526Z,40.30
2017-09-29T14:58:15.092Z,41.50
2017-09-29T15:00:42.617Z,42.70
2017-09-29T15:03:10.891Z,44.40
2017-09-29T15:05:39.173Z,45.60
2017-09-29T15:08:07.452Z,46.60
2017-09-29T15:10:35.738Z,47.40
2017-09-29T15:13:03.280Z,47.30
2017-09-29T15:15:30.832Z,47.90
2017-09-29T15:17:58.386Z,48.70
2017-09-29T15:20:25.983Z,49.00
2017-09-29T15:22:53.528Z,49.50
2017-09-29T15:25:21.049Z,49.80
2017-09-29T15:27:48.594Z,50.20
2017-09-29T15:30:16.119Z,50.40
2017-09-29T15:32:43.650Z,50.80
2017-09-29T15:35:11.258Z,51.00
2017-09-29T15:37:39.144Z,50.90
2017-09-29T15:40:06.964Z,52.00
2017-09-29T15:42:35.238Z,52.80
2017-09-29T15:45:02.789Z,52.80
2017-09-29T15:47:31.059Z,54.00
2017-09-29T15:49:58.567Z,53.80
2017-09-29T15:52:26.090Z,53.90
2017-09-29T15:54:53.613Z,54.20
2017-09-29T15:57:21.119Z,54.60
2017-09-29T15:59:49.498Z,55.70
2017-09-29T16:02:17.020Z,55.70
2017-09-29T16:04:44.556Z,56.00
2017-09-29T16:07:12.071Z,56.60
2017-09-29T16:09:39.570Z,56.80
2017-09-29T16:12:07.088Z,57.20
2017-09-29T16:14:35.374Z,58.00
2017-09-29T16:17:03.656Z,58.30
2017-09-29T16:19:31.170Z,58.30
2017-09-29T16:21:58.707Z,58.70
2017-09-29T16:24:26.338Z,59.00
2017-09-29T16:26:53.893Z,59.30
2017-09-29T16:29:21.424Z,59.40
2017-09-29T16:31:48.951Z,59.70
2017-09-29T16:34:16.490Z,60.10
2017-09-29T16:36:44.032Z,60.50
2017-09-29T16:39:11.551Z,60.60
2017-09-29T16:41:39.097Z,60.70
2017-09-29T16:44:06.615Z,60.70
2017-09-29T16:46:34.133Z,61.00
2017-09-29T16:49:01.640Z,60.70
2017-09-29T16:51:29.209Z,61.00
2017-09-29T16:53:57.078Z,61.40
2017-09-29T16:56:24.594Z,62.50
2017-09-29T16:58:52.884Z,62.10
2017-09-29T17:01:21.287Z,63.20
2017-09-29T17:03:48.817Z,62.30
2017-09-29T17:06:17.129Z,63.00
2017-09-29T17:08:44.689Z,63.00
2017-09-29T17:11:12.207Z,63.40
2017-09-29T17:13:40.525Z,64.00
2017-09-29T17:16:08.074Z,64.00
2017-09-29T17:18:35.605Z,64.10
2017-09-29T17:21:03.207Z,64.30
2017-09-29T17:23:30.728Z,65.00
2017-09-29T17:25:59.042Z,65.90
2017-09-29T17:28:26.551Z,65.90
2017-09-29T17:30:54.469Z,66.20
2017-09-29T17:33:21.991Z,66.30
2017-09-29T17:35:50.291Z,66.10
2017-09-29T17:38:17.805Z,66.00
2017-09-29T17:40:45.524Z,66.00
2017-09-29T17:43:13.027Z,66.20
2017-09-29T17:45:40.549Z,66.70
2017-09-29T17:48:08.055Z,66.60
2017-09-29T17:50:35.568Z,66.10
2017-09-29T17:53:03.096Z,66.10
2017-09-29T17:55:32.655Z,66.50
2017-09-29T17:58:00.191Z,66.50
2017-09-29T18:00:27.725Z,65.90
2017-09-29T18:02:56.058Z,65.80
2017-09-29T18:05:23.567Z,65.70
2017-09-29T18:07:51.087Z,66.00
2017-09-29T18:10:18.649Z,66.20
2017-09-29T18:12:46.157Z,66.60
2017-09-29T18:15:13.669Z,66.80
2017-09-29T18:17:41.191Z,67.40
2017-09-29T18:20:08.725Z,67.80
2017-09-29T18:22:36.236Z,68.50
2017-09-29T18:25:03.759Z,69.10
2017-09-29T18:27:31.279Z,69.60
2017-09-29T18:29:58.825Z,69.40
2017-09-29T18:32:26.360Z,69.60
2017-09-29T18:34:53.983Z,69.20
2017-09-29T18:37:22.277Z,68.20
2017-09-29T18:39:49.793Z,68.20
2017-09-29T18:42:17.319Z,67.90
2017-09-29T18:44:50.283Z,67.70
2017-09-29T18:47:33.595Z,67.40
2017-09-29T18:50:01.894Z,67.10
2017-09-29T18:52:29.484Z,67.10
2017-09-29T18:54:57.296Z,67.10
2017-09-29T18:57:25.557Z,66.60
2017-09-29T18:59:53.071Z,66.50
2017-09-29T19:02:20.611Z,66.60
2017-09-29T19:04:48.152Z,67.40
2017-09-29T19:07:15.727Z,66.40
2017-09-29T19:09:43.253Z,67.60
2017-09-29T19:12:10.778Z,66.70
2017-09-29T19:14:38.334Z,66.50
2017-09-29T19:17:05.846Z,66.20
2017-09-29T19:19:33.364Z,66.20
2017-09-29T19:22:00.857Z,66.00
2017-09-29T19:24:29.170Z,65.50
2017-09-29T19:26:56.696Z,65.50
2017-09-29T19:29:24.217Z,65.60
2017-09-29T19:31:51.743Z,65.60
2017-09-29T19:34:19.268Z,65.30
2017-09-29T19:36:47.160Z,65.00
2017-09-29T19:39:14.691Z,65.00
2017-09-29T19:41:42.249Z,65.00
2017-09-29T19:44:09.751Z,65.00
2017-09-29T19:46:37.275Z,65.10
2017-09-29T19:49:05.601Z,65.00
2017-09-29T19:51:33.129Z,65.00
2017-09-29T19:54:00.646Z,65.00
2017-09-29T19:56:28.152Z,65.00
2017-09-29T19:58:56.459Z,65.00
2017-09-29T20:01:23.975Z,64.90
2017-09-29T20:03:51.507Z,64.70
2017-09-29T20:06:19.019Z,64.50
2017-09-29T20:08:46.591Z,64.70
2017-09-29T20:11:14.129Z,64.50
2017-09-29T20:13:42.804Z,64.20
2017-09-29T20:16:11.116Z,65.10
2017-09-29T20:18:38.636Z,65.10
2017-09-29T20:21:06.212Z,65.30
2017-09-29T20:23:33.732Z,64.80
2017-09-29T20:26:01.420Z,65.00
2017-09-29T20:28:28.952Z,65.40
2017-09-29T20:30:56.527Z,64.90
2017-09-29T20:33:24.807Z,65.00
2017-09-29T20:35:52.361Z,64.90
2017-09-29T20:38:19.911Z,65.30
2017-09-29T20:40:47.473Z,65.20
2017-09-29T20:43:16.169Z,65.00
2017-09-29T20:45:43.694Z,65.00
2017-09-29T20:48:11.209Z,65.10
2017-09-29T20:50:38.832Z,64.80
2017-09-29T20:53:06.402Z,64.60
2017-09-29T20:55:33.965Z,64.70
2017-09-29T20:58:01.529Z,64.70
2017-09-29T21:00:29.058Z,64.90
2017-09-29T21:02:56.579Z,65.10
2017-09-29T21:05:24.146Z,65.70
2017-09-29T21:07:51.845Z,65.40
2017-09-29T21:10:19.403Z,65.20
2017-09-29T21:12:46.924Z,65.10
2017-09-29T21:15:14.532Z,65.20
2017-09-29T21:17:42.101Z,65.30
2017-09-29T21:20:09.616Z,65.30
2017-09-29T21:22:37.123Z,65.20
2017-09-29T21:25:04.798Z,65.60
2017-09-29T21:27:33.225Z,65.70
2017-09-29T21:30:00.731Z,65.60
2017-09-29T21:32:28.273Z,65.60
2017-09-29T21:34:55.875Z,65.60
2017-09-29T21:37:24.231Z,65.50
2017-09-29T21:39:51.794Z,65.40
2017-09-29T21:42:19.297Z,65.80
2017-09-29T21:44:46.901Z,65.80
2017-09-29T21:47:15.242Z,65.90
2017-09-29T21:49:42.755Z,65.90
2017-09-29T21:52:10.306Z,65.80
2017-09-29T21:54:37.843Z,65.90
2017-09-29T21:57:05.386Z,66.00
2017-09-29T21:59:32.907Z,65.90
2017-09-29T22:02:01.247Z,65.90
2017-09-29T22:04:28.824Z,65.90
2017-09-29T22:06:56.550Z,66.10
2017-09-29T22:09:24.135Z,66.00
2017-09-29T22:11:51.641Z,65.90
2017-09-29T22:14:19.217Z,66.20
2017-09-29T22:16:46.761Z,66.60
2017-09-29T22:19:14.331Z,66.60
2017-09-29T22:21:41.859Z,67.00
2017-09-29T22:24:09.382Z,66.90
2017-09-29T22:26:36.945Z,67.10
2017-09-29T22:29:04.526Z,67.30
2017-09-29T22:31:32.157Z,67.20
2017-09-29T22:33:59.725Z,67.10
2017-09-29T22:36:27.284Z,67.20
2017-09-29T22:38:54.951Z,67.30
2017-09-29T22:41:22.481Z,67.50
2017-09-29T22:43:50.020Z,81.40
2017-09-29T22:46:18.475Z,67.90
2017-09-29T22:48:46.367Z,67.90
2017-09-29T22:51:13.924Z,67.90
2017-09-29T22:53:41.443Z,67.90
2017-09-29T22:56:09.062Z,68.00
2017-09-29T22:58:36.632Z,68.30
2017-09-29T23:01:04.152Z,68.50
2017-09-29T23:03:31.786Z,68.50
2017-09-29T23:05:59.372Z,68.50
2017-09-29T23:08:27.048Z,68.60
2017-09-29T23:10:54.604Z,68.80
2017-09-29T23:13:23.023Z,69.00
2017-09-29T23:15:50.541Z,69.00
2017-09-29T23:18:18.830Z,69.20
2017-09-29T23:20:47.112Z,69.20
2017-09-29T23:23:14.627Z,69.20
2017-09-29T23:25:42.163Z,69.10
2017-09-29T23:28:09.721Z,69.20
2017-09-29T23:30:37.273Z,69.40
2017-09-29T23:33:04.799Z,69.20
2017-09-29T23:35:32.324Z,69.50
2017-09-29T23:37:59.851Z,69.80
2017-09-29T23:40:27.357Z,70.00
2017-09-29T23:42:54.903Z,70.30
2017-09-29T23:45:23.208Z,70.50
2017-09-29T23:47:51.485Z,70.70
2017-09-29T23:50:20.550Z,70.40
2017-09-29T23:52:49.008Z,70.80
2017-09-29T23:55:16.517Z,70.80
2017-09-29T23:57:44.049Z,71.10
